Time;durP1;ratioP1;P1;durP2;ratioP2;P2;SDS_P1;SDS_P2;PMS_P1;PMS_P2;Temp;Humidity;BMP_temperature;BMP_pressure;BME280_temperature;BME280_humidity;BME280_pressure;Samples;Min_cycle;Max_cycle;Signal;HPM_P1;HPM_P2
2022/04/28 00:01:37;;;;;;;15.43;9.38;;;;;;;4.62;100.00;161773.88;5008317;28;20042;-57
2022/04/28 00:04:03;;;;;;;19.00;8.65;;;;;;;4.60;100.00;161769.81;5010312;28;20033;-57
2022/04/28 00:06:28;;;;;;;19.60;10.50;;;;;;;4.56;100.00;161759.09;5008270;28;20085;-57
2022/04/28 00:08:53;;;;;;;18.15;11.23;;;;;;;4.56;100.00;161760.41;5009979;28;20026;-57
2022/04/28 00:11:19;;;;;;;17.23;11.70;;;;;;;4.55;100.00;161756.38;5008939;28;20049;-57
2022/04/28 00:13:44;;;;;;;18.95;8.90;;;;;;;4.56;100.00;161760.41;5011780;28;20025;-57
2022/04/28 00:16:09;;;;;;;27.42;10.55;;;;;;;4.55;100.00;161756.38;5012346;28;20092;-57
2022/04/28 00:18:35;;;;;;;21.75;11.55;;;;;;;4.53;100.00;161751.00;5013584;28;20018;-57
2022/04/28 00:21:00;;;;;;;15.27;8.30;;;;;;;4.51;100.00;161745.59;5011964;28;20409;-57
2022/04/28 00:23:25;;;;;;;20.73;11.85;;;;;;;4.45;100.00;161732.19;5012765;28;20026;-57
2022/04/28 00:25:51;;;;;;;27.30;10.73;;;;;;;4.39;100.00;161714.72;5012246;28;20057;-57
2022/04/28 00:28:20;;;;;;;14.30;10.55;;;;;;;4.33;100.00;161699.94;5013233;28;20041;-57
2022/04/28 00:30:45;;;;;;;20.90;11.48;;;;;;;4.31;100.00;161694.53;5011723;28;20531;-57
2022/04/28 00:33:11;;;;;;;23.88;12.68;;;;;;;4.25;100.00;161678.41;5013440;28;20029;-56
2022/04/28 00:35:38;;;;;;;16.85;11.82;;;;;;;4.20;100.00;161665.00;5011330;28;20033;-56
2022/04/28 00:38:04;;;;;;;23.33;12.32;;;;;;;4.16;100.00;161654.22;5012999;28;20046;-56
2022/04/28 00:40:29;;;;;;;28.58;11.68;;;;;;;4.11;100.00;161642.09;5011591;28;20030;-56
2022/04/28 00:43:18;;;;;;;19.00;11.50;;;;;;;4.08;100.00;161635.41;5012694;28;20029;-56
2022/04/28 00:45:39;;;;;;;26.90;13.00;;;;;;;4.11;100.00;161643.47;4991879;28;20401;-56
2022/04/28 00:50:49;;;;;;;18.67;10.65;;;;;;;4.24;100.00;161675.72;4991884;28;20544;-55
2022/04/28 00:53:16;;;;;;;18.85;10.73;;;;;;;4.26;100.00;161681.13;4993382;28;20026;-56
2022/04/28 00:55:41;;;;;;;23.00;10.68;;;;;;;4.27;100.00;161683.81;4992666;28;20053;-56
2022/04/28 00:58:07;;;;;;;22.35;13.30;;;;;;;4.26;100.00;161682.44;4995389;28;20580;-56
2022/04/28 01:00:33;;;;;;;22.75;11.60;;;;;;;4.28;100.00;161686.50;5011809;28;20053;-55
2022/04/28 01:02:58;;;;;;;24.30;14.02;;;;;;;4.27;100.00;161683.81;5013421;28;20022;-56
2022/04/28 01:05:26;;;;;;;20.50;10.02;;;;;;;4.29;100.00;161689.16;5012710;28;20092;-56
2022/04/28 01:07:51;;;;;;;31.27;13.35;;;;;;;4.22;100.00;161670.34;5011931;28;20038;-56
2022/04/28 01:10:17;;;;;;;17.17;10.98;;;;;;;4.25;100.00;161678.41;5013395;28;20037;-56
2022/04/28 01:12:43;;;;;;;28.58;14.07;;;;;;;4.18;100.00;161659.59;5011008;28;20046;-56
2022/04/28 01:15:09;;;;;;;19.42;13.90;;;;;;;4.06;100.00;161630.00;5013187;28;20112;-56
2022/04/28 01:17:34;;;;;;;19.08;16.23;;;;;;;3.95;100.00;161600.47;5011545;28;20560;-56
2022/04/28 01:20:00;;;;;;;22.50;14.75;;;;;;;3.84;100.00;161572.25;5012790;28;20465;-56
2022/04/28 01:22:26;;;;;;;18.35;11.88;;;;;;;3.75;100.00;161549.41;5011265;28;20117;-56
2022/04/28 01:24:51;;;;;;;21.20;11.60;;;;;;;3.66;100.00;161525.22;5013031;28;20021;-55
2022/04/28 01:27:18;;;;;;;20.10;12.55;;;;;;;3.54;100.00;161493.00;5011058;28;20089;-56
2022/04/28 01:29:43;;;;;;;24.52;13.52;;;;;;;3.53;100.00;161490.31;5012379;28;20481;-56
2022/04/28 01:32:09;;;;;;;30.95;14.73;;;;;;;3.58;100.00;161503.72;5011504;28;20092;-56
2022/04/28 01:34:34;;;;;;;19.25;12.98;;;;;;;3.53;100.00;161490.31;5012209;28;20596;-56
2022/04/28 01:36:59;;;;;;;23.60;16.20;;;;;;;3.52;100.00;161487.59;5011298;28;20056;-56
2022/04/28 01:39:25;;;;;;;21.40;18.15;;;;;;;3.53;100.00;161490.31;5012493;28;20084;-56
2022/04/28 01:41:50;;;;;;;22.33;13.85;;;;;;;3.51;100.00;161484.91;5010814;28;20041;-56
2022/04/28 01:44:16;;;;;;;24.65;14.73;;;;;;;3.53;100.00;161490.31;5012803;28;20473;-56
2022/04/28 01:46:41;;;;;;;22.35;16.08;;;;;;;3.53;100.00;161491.63;5011042;28;20435;-56
2022/04/28 01:49:07;;;;;;;26.13;16.90;;;;;;;3.62;100.00;161515.81;5011956;28;20034;-56
2022/04/28 01:55:01;;;;;;;31.70;14.57;;;;;;;3.68;100.00;161530.59;5012724;28;20045;-57
2022/04/28 01:57:02;;;;;;;29.67;15.15;;;;;;;3.70;100.00;161534.63;5006570;28;20045;-57
2022/04/28 01:59:27;;;;;;;25.73;14.93;;;;;;;3.69;100.00;161533.25;5011741;28;20026;-57
2022/04/28 02:01:53;;;;;;;34.75;16.92;;;;;;;3.73;100.00;161544.03;5010774;28;20053;-57
2022/04/28 02:04:19;;;;;;;34.53;16.80;;;;;;;3.73;100.00;161544.03;5011677;28;20048;-57
2022/04/28 02:06:44;;;;;;;32.83;15.25;;;;;;;3.74;100.00;161545.34;5010797;28;20034;-57
2022/04/28 02:09:10;;;;;;;37.28;18.80;;;;;;;3.72;100.00;161541.34;5011895;28;20029;-57
2022/04/28 02:11:36;;;;;;;37.08;17.63;;;;;;;3.73;100.00;161544.03;5010063;28;20045;-57
2022/04/28 02:14:01;;;;;;;24.67;16.05;;;;;;;3.73;100.00;161542.66;5012201;28;20466;-57
2022/04/28 02:16:26;;;;;;;21.40;15.52;;;;;;;3.67;100.00;161527.91;5010162;28;20047;-57
2022/04/28 02:18:52;;;;;;;25.10;14.55;;;;;;;3.67;100.00;161527.91;5011843;28;20033;-57
2022/04/28 02:21:17;;;;;;;19.58;13.90;;;;;;;3.65;100.00;161522.53;5010724;28;20037;-57
2022/04/28 02:23:43;;;;;;;37.90;16.05;;;;;;;3.67;100.00;161526.53;5011515;28;20025;-57
2022/04/28 02:26:08;;;;;;;29.58;15.75;;;;;;;3.65;100.00;161522.53;5010124;28;20038;-57
2022/04/28 02:28:34;;;;;;;22.63;14.52;;;;;;;3.61;100.00;161511.81;5011982;28;20026;-57
2022/04/28 02:30:59;;;;;;;44.63;17.77;;;;;;;3.58;100.00;161503.72;5010336;28;20029;-57
2022/04/28 02:33:24;;;;;;;27.45;14.98;;;;;;;3.54;100.00;161494.31;5011643;28;20049;-58
2022/04/28 02:35:50;;;;;;;27.23;15.90;;;;;;;3.49;100.00;161480.91;5009527;28;20080;-56
2022/04/28 02:38:15;;;;;;;28.40;17.65;;;;;;;3.48;100.00;161479.53;5011674;28;20022;-57
2022/04/28 02:40:40;;;;;;;28.25;15.93;;;;;;;3.48;100.00;161478.22;5010002;28;20030;-57
2022/04/28 02:43:06;;;;;;;24.05;17.67;;;;;;;3.44;100.00;161468.81;5011188;28;20072;-57
2022/04/28 02:45:31;;;;;;;36.47;18.70;;;;;;;3.44;100.00;161468.81;5011599;28;20029;-58
2022/04/28 02:47:57;;;;;;;29.27;19.42;;;;;;;3.43;100.00;161466.09;5010040;28;20406;-57
2022/04/28 02:50:22;;;;;;;36.13;21.42;;;;;;;3.42;100.00;161463.41;5010779;28;20041;-57
2022/04/28 02:52:51;;;;;;;30.20;17.80;;;;;;;3.39;100.00;161455.34;5010160;28;20049;-57
2022/04/28 02:55:17;;;;;;;30.70;18.85;;;;;;;3.35;100.00;161444.59;5011753;28;20022;-57
2022/04/28 02:57:42;;;;;;;37.70;20.98;;;;;;;3.31;100.00;161433.88;5009392;28;20133;-57
2022/04/28 03:00:08;;;;;;;28.35;18.35;;;;;;;3.27;100.00;161424.47;5011376;28;20022;-57
2022/04/28 03:02:35;;;;;;;31.30;17.55;;;;;;;3.25;100.00;161417.72;5009255;28;20050;-57
2022/04/28 03:05:03;;;;;;;26.77;17.63;;;;;;;3.21;100.00;161407.00;5011286;28;20056;-57
2022/04/28 03:10:46;;;;;;;32.17;20.75;;;;;;;3.16;100.00;161396.22;5011295;28;20166;-57
2022/04/28 03:13:12;;;;;;;21.70;16.50;;;;;;;3.09;100.00;161377.44;5010001;28;20065;-57
2022/04/28 03:15:39;;;;;;;28.48;17.35;;;;;;;3.03;100.00;161361.31;5009375;28;20061;-57
2022/04/28 03:18:04;;;;;;;36.80;19.58;;;;;;;3.04;100.00;161362.69;5011286;28;20385;-57
2022/04/28 03:20:30;;;;;;;31.85;19.30;;;;;;;3.02;100.00;161358.63;5011148;28;20033;-57
2022/04/28 03:22:55;;;;;;;23.75;18.30;;;;;;;3.01;100.00;161357.31;5009723;28;20038;-57
2022/04/28 03:25:20;;;;;;;46.28;25.20;;;;;;;2.97;100.00;161345.22;5010832;28;20033;-58
2022/04/28 03:27:46;;;;;;;31.48;19.80;;;;;;;2.95;100.00;161339.81;5009579;28;20045;-57
2022/04/28 03:30:11;;;;;;;29.98;19.25;;;;;;;2.89;100.00;161323.72;5011018;28;20504;-57
2022/04/28 03:32:37;;;;;;;28.30;21.75;;;;;;;2.84;100.00;161313.00;5009547;28;20486;-57
2022/04/28 03:35:02;;;;;;;33.15;20.23;;;;;;;2.83;100.00;161310.31;5011049;28;20030;-57
2022/04/28 03:37:28;;;;;;;30.10;22.35;;;;;;;2.84;100.00;161313.00;5009452;28;20481;-56
2022/04/28 03:39:53;;;;;;;41.92;23.20;;;;;;;2.78;100.00;161296.88;5011172;28;20380;-57
2022/04/28 03:42:18;;;;;;;52.55;28.05;;;;;;;2.80;100.00;161302.22;5009240;28;20076;-57
2022/04/28 03:44:44;;;;;;;46.22;21.88;;;;;;;2.81;100.00;161303.59;5010910;28;20021;-57
2022/04/28 03:47:09;;;;;;;46.80;27.30;;;;;;;2.81;100.00;161304.91;5009770;28;20045;-57
2022/04/28 03:49:34;;;;;;;37.45;22.80;;;;;;;2.78;100.00;161296.88;5013786;28;20026;-57
2022/04/28 03:52:00;;;;;;;31.90;24.20;;;;;;;2.72;100.00;161280.75;5013245;28;20038;-57
2022/04/28 03:54:25;;;;;;;35.75;22.58;;;;;;;2.66;100.00;161266.00;5014183;28;20028;-57
2022/04/28 03:56:50;;;;;;;25.58;20.40;;;;;;;2.60;100.00;161249.91;5012457;28;20501;-56
2022/04/28 03:59:16;;;;;;;33.50;19.77;;;;;;;2.54;100.00;161235.13;5014461;28;20378;-56
2022/04/28 04:01:41;;;;;;;30.92;21.90;;;;;;;2.45;100.00;161210.94;5012723;28;20057;-56
2022/04/28 04:04:06;;;;;;;42.13;21.85;;;;;;;2.41;100.00;161200.22;5013647;28;20077;-57
2022/04/28 04:06:32;;;;;;;24.20;19.77;;;;;;;2.36;100.00;161186.75;5012891;28;20049;-56
2022/04/28 04:08:57;;;;;;;31.10;21.45;;;;;;;2.34;100.00;161181.44;5013971;28;20047;-56
2022/04/28 04:11:23;;;;;;;32.72;22.38;;;;;;;2.31;100.00;161173.34;5012328;28;20163;-57
2022/04/28 04:13:49;;;;;;;40.53;25.00;;;;;;;2.12;100.00;161125.06;5013765;28;20099;-56
2022/04/28 04:16:14;;;;;;;36.38;19.80;;;;;;;2.32;100.00;161176.06;5011495;28;20038;-56
2022/04/28 04:18:40;;;;;;;32.83;21.65;;;;;;;2.36;100.00;161186.75;5012878;28;20022;-56
2022/04/28 04:21:05;;;;;;;37.20;24.70;;;;;;;2.33;100.00;161178.75;5012540;28;20506;-56
2022/04/28 04:23:31;;;;;;;28.38;21.40;;;;;;;2.33;100.00;161178.75;5013621;28;20044;-56
2022/04/28 04:25:57;;;;;;;29.92;21.75;;;;;;;2.38;100.00;161192.16;5016132;28;20037;-56
2022/04/28 04:28:23;;;;;;;31.15;19.98;;;;;;;2.45;100.00;161210.94;5028965;28;20022;-56
2022/04/28 04:33:33;;;;;;;30.30;20.45;;;;;;;2.40;100.00;161197.53;4994101;28;20077;-56
2022/04/28 04:35:58;;;;;;;31.33;19.45;;;;;;;2.35;100.00;161184.06;4997164;28;20545;-56
2022/04/28 04:38:23;;;;;;;36.00;22.65;;;;;;;2.31;100.00;161174.69;5013681;28;20014;-56
2022/04/28 04:40:49;;;;;;;45.03;25.20;;;;;;;2.30;100.00;161172.03;5012167;28;20484;-56
2022/04/28 04:43:14;;;;;;;31.45;21.60;;;;;;;2.37;100.00;161189.47;5013658;28;20037;-56
2022/04/28 04:45:43;;;;;;;36.00;24.55;;;;;;;2.45;100.00;161210.94;5012265;28;20018;-56
2022/04/28 04:48:10;;;;;;;55.75;30.05;;;;;;;2.57;100.00;161240.50;5013532;28;20060;-56
2022/04/28 04:50:36;;;;;;;36.33;24.98;;;;;;;2.64;100.00;161259.31;5012267;28;20014;-56
2022/04/28 04:53:01;;;;;;;34.03;22.45;;;;;;;2.75;100.00;161288.81;5013539;28;20022;-56
2022/04/28 04:55:26;;;;;;;38.85;21.23;;;;;;;2.79;100.00;161299.53;5013006;28;20513;-56
2022/04/28 04:57:52;;;;;;;31.48;20.17;;;;;;;2.89;100.00;161323.72;5012199;28;20045;-56
2022/04/28 05:00:17;;;;;;;28.02;20.08;;;;;;;2.92;100.00;161331.78;5013006;28;20080;-56
2022/04/28 05:02:43;;;;;;;29.83;20.08;;;;;;;3.05;100.00;161365.38;5011346;28;20058;-56
2022/04/28 05:05:09;;;;;;;29.42;17.63;;;;;;;3.10;100.00;161380.13;5013424;28;20026;-56
2022/04/28 05:07:34;;;;;;;28.90;18.70;;;;;;;3.17;100.00;161398.91;5011495;28;20489;-55
2022/04/28 05:09:59;;;;;;;27.02;19.38;;;;;;;3.26;100.00;161421.78;5013154;28;20036;-55
2022/04/28 05:12:25;;;;;;;28.40;20.65;;;;;;;3.35;100.00;161444.59;5011750;28;20045;-55
2022/04/28 05:14:50;;;;;;;34.35;22.10;;;;;;;3.45;100.00;161471.50;5013441;28;20377;-55
2022/04/28 05:17:16;;;;;;;29.88;15.13;;;;;;;3.53;100.00;161490.31;5011406;28;20140;-55
2022/04/28 05:19:42;;;;;;;25.95;16.42;;;;;;;3.62;100.00;161514.44;5013058;28;20080;-55
2022/04/28 05:22:07;;;;;;;31.60;18.92;;;;;;;3.72;100.00;161540.00;5011620;28;20041;-55
2022/04/28 05:24:33;;;;;;;26.60;15.00;;;;;;;3.78;100.00;161557.44;5012527;28;20355;-55
2022/04/28 05:26:58;;;;;;;35.38;16.67;;;;;;;3.85;100.00;161574.94;5011515;28;20390;-56
2022/04/28 05:29:24;;;;;;;28.50;15.75;;;;;;;3.94;100.00;161599.16;5012559;28;20018;-56
2022/04/28 05:31:49;;;;;;;40.75;20.20;;;;;;;4.00;100.00;161612.56;5011306;28;20460;-56
2022/04/28 05:34:15;;;;;;;25.65;16.48;;;;;;;4.11;100.00;161643.47;5012957;28;20026;-56
2022/04/28 05:36:40;;;;;;;25.20;13.20;;;;;;;4.22;100.00;161670.34;5011093;28;20038;-56
2022/04/28 05:39:06;;;;;;;19.15;13.10;;;;;;;4.30;100.00;161691.84;5012325;28;20026;-56
2022/04/28 05:41:32;;;;;;;26.50;14.85;;;;;;;4.40;100.00;161717.38;5011056;28;20405;-56
2022/04/28 05:46:42;;;;;;;19.30;12.20;;;;;;;4.57;100.00;161761.78;5009187;28;20104;-55
2022/04/28 05:49:08;;;;;;;21.73;14.65;;;;;;;4.66;100.00;161784.63;5002370;28;20026;-55
2022/04/28 05:51:33;;;;;;;24.58;15.43;;;;;;;4.70;100.00;161796.72;5009822;28;20076;-56
2022/04/28 05:53:59;;;;;;;15.80;11.70;;;;;;;4.82;100.00;161826.28;5020750;28;20072;-55
2022/04/28 05:56:24;;;;;;;38.17;17.27;;;;;;;4.92;100.00;161853.19;5020584;28;20038;-54
2022/04/28 05:58:50;;;;;;;24.27;14.63;;;;;;;5.02;100.00;161880.13;5022127;28;20484;-54
2022/04/28 06:01:16;;;;;;;21.25;13.02;;;;;;;5.13;100.00;161906.97;5018759;28;20493;-54
2022/04/28 06:03:41;;;;;;;34.97;14.25;;;;;;;5.24;100.00;161936.59;5021953;28;20025;-54
2022/04/28 06:06:07;;;;;;;19.88;11.80;;;;;;;5.34;100.00;161963.47;5019856;28;20030;-53
2022/04/28 06:08:33;;;;;;;20.67;10.73;;;;;;;5.48;100.00;161998.44;5020646;28;20595;-54
2022/04/28 06:10:58;;;;;;;29.85;15.65;;;;;;;5.54;100.00;162014.63;5020232;28;20038;-54
2022/04/28 06:13:24;;;;;;;42.50;15.65;;;;;;;5.68;100.00;162052.28;5020761;28;20021;-54
2022/04/28 06:15:49;;;;;;;14.35;11.60;;;;;;;5.77;100.00;162073.81;5019850;28;20047;-54
2022/04/28 06:18:14;;;;;;;19.90;11.35;;;;;;;5.91;100.00;162111.50;5022147;28;20040;-54
2022/04/28 06:20:40;;;;;;;18.25;10.90;;;;;;;6.05;100.00;162146.53;5018692;28;20021;-54
2022/04/28 06:23:05;;;;;;;19.98;11.38;;;;;;;6.11;100.00;162162.66;5021302;28;20021;-55
2022/04/28 06:25:31;;;;;;;20.30;11.10;;;;;;;6.24;100.00;162197.66;5010384;28;20041;-54
2022/04/28 06:27:57;;;;;;;18.67;10.63;;;;;;;6.35;100.00;162225.91;5012053;28;20385;-54
2022/04/28 06:30:22;;;;;;;16.92;10.82;;;;;;;6.48;100.00;162259.59;5011248;28;20030;-53
2022/04/28 06:32:49;;;;;;;23.33;14.23;;;;;;;6.59;100.00;162289.19;5010271;28;20050;-54
2022/04/28 06:35:15;;;;;;;18.08;10.50;;;;;;;6.74;100.00;162326.94;5011780;28;20026;-54
2022/04/28 06:37:40;;;;;;;17.55;12.77;;;;;;;6.88;100.00;162363.25;5015333;28;20074;-54
2022/04/28 06:40:06;;;;;;;16.10;10.38;;;;;;;6.97;100.00;162388.81;5021471;28;20021;-54
2022/04/28 06:42:32;;;;;;;17.52;9.88;;;;;;;7.12;100.00;162427.91;5019517;28;20034;-54
2022/04/28 06:44:57;;;;;;;22.75;11.73;;;;;;;7.20;100.00;162448.06;5020042;28;20416;-53
2022/04/28 06:47:23;;;;;;;18.52;10.75;;;;;;;7.37;100.00;162492.50;5017754;28;20049;-54
2022/04/28 06:49:48;;;;;;;17.80;9.13;;;;;;;7.50;100.00;162526.19;5020020;28;20025;-54
2022/04/28 06:52:14;;;;;;;15.15;8.35;;;;;;;7.63;100.00;162561.22;5020116;28;20065;-54
2022/04/28 06:54:39;;;;;;;15.82;9.10;;;;;;;8.04;100.00;162666.34;5020860;28;20017;-54
2022/04/28 06:57:05;;;;;;;14.98;8.35;;;;;;;8.59;100.00;162809.28;5018379;28;20042;-55
2022/04/28 06:59:30;;;;;;;17.10;8.82;;;;;;;9.54;100.00;163058.72;5028128;28;20033;-55
2022/04/28 07:01:55;;;;;;;11.27;5.68;;;;;;;10.82;100.00;163392.09;5022833;28;20037;-55
2022/04/28 07:04:21;;;;;;;20.10;7.53;;;;;;;11.70;100.00;163624.38;5020626;28;20030;-55
2022/04/28 07:06:46;;;;;;;14.98;4.65;;;;;;;11.38;100.00;163540.63;5022073;28;20053;-55
2022/04/28 07:09:11;;;;;;;10.13;6.63;;;;;;;11.25;100.00;163505.50;5019052;28;20018;-55
2022/04/28 07:11:37;;;;;;;12.63;5.45;;;;;;;11.72;100.00;163629.78;5020384;28;20048;-55
2022/04/28 07:14:02;;;;;;;10.07;4.25;;;;;;;12.26;100.00;163770.28;5021732;28;20029;-55
2022/04/28 07:16:27;;;;;;;14.73;5.72;;;;;;;12.75;100.00;163898.69;5018435;28;20444;-55
2022/04/28 07:18:53;;;;;;;11.85;4.80;;;;;;;12.95;100.00;163951.41;5021518;28;20022;-55
2022/04/28 07:21:18;;;;;;;9.52;4.85;;;;;;;12.47;100.00;163824.38;5018067;28;20030;-55
2022/04/28 07:23:43;;;;;;;17.25;5.75;;;;;;;12.53;100.00;163840.59;5023746;28;20029;-55
2022/04/28 07:26:09;;;;;;;15.82;4.88;;;;;;;12.57;100.00;163850.03;5023614;28;20038;-55
2022/04/28 07:28:34;;;;;;;14.02;5.68;;;;;;;11.77;100.00;163641.88;5026277;28;20029;-55
2022/04/28 07:31:00;;;;;;;11.90;4.68;;;;;;;11.77;100.00;163640.56;5021658;28;20497;-55
2022/04/28 07:33:25;;;;;;;10.38;4.15;;;;;;;12.72;100.00;163890.59;5022089;28;20025;-56
2022/04/28 07:35:51;;;;;;;12.48;4.47;;;;;;;13.40;100.00;164067.72;5023406;28;20518;-55
2022/04/28 07:38:16;;;;;;;8.43;4.40;;;;;;;14.30;100.00;164303.06;5025275;28;20024;-55
2022/04/28 07:40:41;;;;;;;12.52;5.18;;;;;;;14.73;100.00;164418.13;5025177;28;20479;-55
2022/04/28 07:43:07;;;;;;;12.15;4.70;;;;;;;14.06;100.00;164242.19;5023563;28;20026;-55
2022/04/28 07:45:32;;;;;;;14.05;4.10;;;;;;;14.10;100.00;164251.66;5021323;28;20026;-54
2022/04/28 07:47:57;;;;;;;15.80;6.93;;;;;;;13.56;100.00;164111.00;5019718;28;20021;-55
2022/04/28 07:50:23;;;;;;;12.52;5.97;;;;;;;13.10;100.00;163989.25;5014550;28;20028;-55
2022/04/28 07:52:49;;;;;;;12.32;5.38;;;;;;;11.97;100.00;163693.31;5012942;28;20120;-55
2022/04/28 07:55:14;;;;;;;12.20;5.63;;;;;;;12.03;100.00;163710.84;5014853;28;20432;-55
2022/04/28 07:57:41;;;;;;;10.00;6.53;;;;;;;11.39;100.00;163543.31;5012881;28;20034;-55
2022/04/28 08:00:08;;;;;;;9.35;5.50;;;;;;;11.59;100.00;163594.63;5014103;28;20685;-55
2022/04/28 08:02:36;;;;;;;7.05;4.43;;;;;;;11.48;100.00;163564.94;5012917;28;20100;-55
2022/04/28 08:05:01;;;;;;;15.82;6.55;;;;;;;11.45;100.00;163556.81;5014326;28;20089;-55
2022/04/28 08:07:27;;;;;;;13.57;7.22;;;;;;;11.78;100.00;163643.28;5019956;28;20131;-55
2022/04/28 08:09:52;;;;;;;14.45;6.78;;;;;;;11.54;100.00;163581.13;5013170;28;20018;-55
2022/04/28 08:12:18;;;;;;;14.45;5.85;;;;;;;11.98;100.00;163696.03;5012886;28;20128;-55
2022/04/28 08:14:43;;;;;;;11.68;5.43;;;;;;;11.81;100.00;163651.34;5013743;28;20111;-55
2022/04/28 08:17:09;;;;;;;11.85;7.32;;;;;;;11.82;100.00;163654.06;5012703;28;20533;-55
2022/04/28 08:19:34;;;;;;;10.18;5.53;;;;;;;12.30;100.00;163781.13;5014273;28;20022;-55
2022/04/28 08:22:00;;;;;;;11.88;5.82;;;;;;;12.28;100.00;163775.72;5012603;28;20046;-55
2022/04/28 08:24:25;;;;;;;8.63;4.15;;;;;;;11.83;100.00;163656.75;5013839;28;20457;-55
2022/04/28 08:26:54;;;;;;;29.58;5.82;;;;;;;12.40;100.00;163806.78;5012792;28;20431;-55
2022/04/28 08:29:21;;;;;;;15.35;6.90;;;;;;;12.43;100.00;163813.53;5013870;28;20068;-55
2022/04/28 08:31:46;;;;;;;8.38;5.32;;;;;;;12.21;100.00;163756.78;5001880;28;20442;-55
2022/04/28 08:34:13;;;;;;;22.35;8.35;;;;;;;12.15;100.00;163740.59;4993568;28;20022;-55
2022/04/28 08:36:39;;;;;;;12.52;4.97;;;;;;;12.85;100.00;163924.34;4992343;28;20569;-55
2022/04/28 08:39:05;;;;;;;13.75;5.25;;;;;;;13.12;100.00;163994.66;4994332;28;20018;-55
2022/04/28 08:41:33;;;;;;;12.57;6.32;;;;;;;12.68;100.00;163879.75;4992681;28;20490;-55
2022/04/28 08:43:59;;;;;;;;;;;;;;;13.67;100.00;164138.00;4994151;28;20465;-55
2022/04/28 08:49:12;;;;;;;14.00;5.60;;;;;;;13.77;100.00;164165.06;4994053;28;20545;-55
2022/04/28 08:51:37;;;;;;;9.20;4.60;;;;;;;14.05;100.00;164238.09;4992469;28;20045;-55
2022/04/28 08:54:04;;;;;;;11.38;5.05;;;;;;;14.91;100.00;164464.09;4994073;28;20034;-55
2022/04/28 08:56:29;;;;;;;8.10;5.53;;;;;;;14.98;100.00;164483.06;4992700;28;20039;-55
2022/04/28 08:58:55;;;;;;;13.57;6.00;;;;;;;15.05;100.00;164500.66;4993524;28;20041;-55
2022/04/28 09:01:25;;;;;;;15.55;4.88;;;;;;;14.87;100.00;164454.63;5005120;28;20038;-55
2022/04/28 09:03:51;;;;;;;13.27;6.50;;;;;;;14.60;100.00;164384.25;5010086;28;20405;-55
2022/04/28 09:06:24;;;;;;;11.27;5.88;;;;;;;14.79;100.00;164432.97;5011625;28;20068;-55
2022/04/28 09:08:51;;;;;;;8.25;4.80;;;;;;;13.45;96.47;164081.22;5013245;28;20033;-55
2022/04/28 09:11:28;;;;;;;10.55;4.43;;;;;;;13.92;98.96;164205.66;5011531;28;20514;-55
2022/04/28 09:14:11;;;;;;;15.82;5.68;;;;;;;14.14;100.00;164262.47;5012299;28;20559;-55
2022/04/28 09:16:45;;;;;;;10.27;4.55;;;;;;;14.01;96.42;164227.31;5020822;28;20029;-55
2022/04/28 09:19:34;;;;;;;9.52;4.75;;;;;;;15.07;96.30;164506.09;5033155;28;20029;-55
2022/04/28 09:22:06;;;;;;;10.65;4.97;;;;;;;15.54;92.00;164629.25;5031265;28;20043;-55
2022/04/28 09:24:32;;;;;;;7.63;4.72;;;;;;;14.71;89.47;164411.31;5032331;28;20393;-55
2022/04/28 09:26:57;;;;;;;8.50;4.43;;;;;;;14.36;93.08;164319.28;5028696;28;20041;-55
2022/04/28 09:29:27;;;;;;;28.08;6.30;;;;;;;14.15;93.69;164265.19;5011772;28;20444;-55
2022/04/28 09:31:53;;;;;;;6.75;5.18;;;;;;;13.74;94.10;164156.94;5011710;28;20046;-55
2022/04/28 09:34:21;;;;;;;9.27;5.47;;;;;;;13.13;99.27;163998.72;5011643;28;20030;-55
2022/04/28 09:36:47;;;;;;;9.43;5.82;;;;;;;13.02;98.97;163970.31;5009940;28;20643;-55
2022/04/28 09:44:53;;;;;;;15.77;4.93;;;;;;;14.32;94.79;164308.47;5012205;28;20072;-55
2022/04/28 09:47:19;;;;;;;16.88;5.25;;;;;;;14.25;97.89;164292.25;5011225;28;20037;-55
2022/04/28 09:49:52;;;;;;;11.38;5.82;;;;;;;14.80;96.71;164435.69;5012194;28;20036;-53
2022/04/28 09:52:20;;;;;;;9.32;5.57;;;;;;;15.10;100.00;164514.19;5010689;28;20038;-57
2022/04/28 09:54:47;;;;;;;13.38;5.22;;;;;;;14.88;99.69;164457.34;5012324;28;20034;-55
2022/04/28 09:57:14;;;;;;;11.57;5.47;;;;;;;14.19;95.26;164275.97;5010978;28;20052;-53
2022/04/28 09:59:41;;;;;;;13.05;6.18;;;;;;;14.81;100.00;164438.41;5011562;28;20061;-54
2022/04/28 10:02:15;;;;;;;14.35;5.53;;;;;;;14.90;100.00;164462.78;5010926;28;20096;-53
2022/04/28 10:04:42;;;;;;;12.98;6.82;;;;;;;14.98;93.40;164481.72;5013385;28;20033;-55
2022/04/28 10:07:08;;;;;;;14.95;6.60;;;;;;;14.36;94.95;164319.28;5028622;28;20533;-54
2022/04/28 10:09:35;;;;;;;20.25;7.32;;;;;;;14.11;97.88;164254.38;5030266;28;20029;-54
2022/04/28 10:12:02;;;;;;;12.52;5.55;;;;;;;13.89;96.61;164196.19;5029411;28;20047;-54
2022/04/28 10:14:28;;;;;;;20.73;6.80;;;;;;;13.79;98.21;164170.50;5030776;28;20057;-54
2022/04/28 10:16:54;;;;;;;7.35;5.25;;;;;;;13.94;98.60;164211.09;5029809;28;20042;-52
2022/04/28 10:19:26;;;;;;;12.75;6.80;;;;;;;13.57;98.89;164113.72;5031628;28;20053;-54
2022/04/28 10:21:59;;;;;;;7.68;5.18;;;;;;;14.00;97.04;164224.59;5029505;28;20090;-54
2022/04/28 10:32:59;;;;;;;11.63;5.57;;;;;;;15.98;90.22;164744.38;5009282;28;20095;-54
2022/04/28 10:35:44;;;;;;;9.40;6.85;;;;;;;16.62;93.42;164912.34;5026729;28;20033;-54
2022/04/28 10:38:14;;;;;;;7.32;5.13;;;;;;;16.24;86.47;164812.09;5010574;28;20111;-54
2022/04/28 10:40:45;;;;;;;7.60;5.65;;;;;;;16.02;87.17;164755.22;5010008;28;20508;-54
2022/04/28 10:43:33;;;;;;;12.60;5.43;;;;;;;15.51;87.16;164622.50;5011124;28;20114;-54
2022/04/28 10:46:01;;;;;;;12.63;6.50;;;;;;;15.04;88.74;164499.28;5004513;28;20037;-54
2022/04/28 10:48:29;;;;;;;10.73;4.85;;;;;;;14.60;91.88;164384.25;5011639;28;20077;-54
2022/04/28 10:51:11;;;;;;;10.07;5.13;;;;;;;14.66;93.78;164399.19;5009983;28;20065;-53
2022/04/28 10:53:55;;;;;;;10.40;6.03;;;;;;;14.58;90.97;164377.47;5011210;28;20034;-54
2022/04/28 10:56:21;;;;;;;10.73;5.03;;;;;;;14.72;92.85;164415.41;5009823;28;20042;-54
2022/04/28 10:58:46;;;;;;;13.13;5.60;;;;;;;14.85;91.34;164447.88;5010848;28;20045;-54
2022/04/28 11:01:33;;;;;;;7.53;4.72;;;;;;;14.51;90.74;164359.88;5009992;28;20080;-54
2022/04/28 11:04:01;;;;;;;8.38;6.00;;;;;;;15.00;93.40;164487.16;5011624;28;20026;-54
2022/04/28 11:06:41;;;;;;;9.43;5.27;;;;;;;15.30;91.97;164566.97;5009554;28;20084;-53
2022/04/28 11:09:09;;;;;;;10.02;4.53;;;;;;;15.21;91.02;164544.00;5011350;28;20085;-54
2022/04/28 11:11:42;;;;;;;19.80;8.10;;;;;;;15.27;92.59;164557.50;5009249;28;20064;-54
2022/04/28 11:14:08;;;;;;;7.95;4.90;;;;;;;15.06;89.57;164503.38;5011312;28;20027;-54
2022/04/28 11:16:34;;;;;;;9.65;5.43;;;;;;;14.95;90.29;164473.56;5009648;28;20180;-54
2022/04/28 11:19:01;;;;;;;13.82;5.20;;;;;;;14.83;95.52;164443.84;5010859;28;20029;-54
2022/04/28 11:21:27;;;;;;;11.93;6.18;;;;;;;15.16;93.49;164530.41;5009656;28;20037;-54
2022/04/28 11:23:53;;;;;;;7.63;4.80;;;;;;;15.36;91.00;164581.88;5010941;28;20036;-54
2022/04/28 11:26:19;;;;;;;13.30;6.28;;;;;;;15.19;88.15;164538.56;5009734;28;20038;-54
2022/04/28 11:28:45;;;;;;;7.20;5.20;;;;;;;14.94;92.14;164470.88;5010675;28;20478;-54
2022/04/28 11:31:13;;;;;;;8.40;6.20;;;;;;;15.48;94.65;164613.03;5005959;28;20045;-54
2022/04/28 11:33:41;;;;;;;8.02;5.50;;;;;;;15.32;90.82;164571.03;5010296;28;20452;-54
2022/04/28 11:36:23;;;;;;;13.52;7.80;;;;;;;15.17;90.14;164533.13;5009205;28;20045;-54
2022/04/28 11:38:50;;;;;;;10.73;6.32;;;;;;;14.56;89.27;164373.38;5006041;28;20030;-53
2022/04/28 11:41:16;;;;;;;5.95;5.10;;;;;;;14.42;90.42;164335.50;5009032;28;20042;-54